Time;durP1;ratioP1;P1;durP2;ratioP2;P2;SDS_P1;SDS_P2;PMS_P1;PMS_P2;Temp;Humidity;BMP_temperature;BMP_pressure;BME280_temperature;BME280_humidity;BME280_pressure;Samples;Min_cycle;Max_cycle;Signal;HPM_P1;HPM_P2
2024/04/15 04:48:10;;;;;;;9.95;3.50;;;15.90;93.20;;;;;;4292564;22;20520;-86
2024/04/15 04:50:11;;;;;;;5.63;3.30;;;15.80;93.20;;;;;;4289393;27;20012;-86
2024/04/15 04:52:12;;;;;;;6.32;3.60;;;15.80;93.10;;;;;;4276070;27;20015;-84
2024/04/15 04:54:17;;;;;;;7.18;3.42;;;15.70;93.40;;;;;;4297457;27;20020;-85
2024/04/15 04:56:18;;;;;;;6.53;3.38;;;15.80;93.50;;;;;;4285347;27;20434;-85
2024/04/15 04:58:21;;;;;;;7.05;4.00;;;15.70;93.60;;;;;;4284923;27;20008;-85
2024/04/15 05:00:23;;;;;;;8.10;3.67;;;15.70;93.50;;;;;;4285012;27;20633;-84
2024/04/15 05:02:27;;;;;;;6.47;3.35;;;15.80;93.60;;;;;;4284929;27;20009;-85
2024/04/15 05:04:33;;;;;;;5.28;3.20;;;15.80;93.50;;;;;;4285377;27;20442;-85
2024/04/15 05:06:36;;;;;;;9.02;3.40;;;15.80;93.30;;;;;;4287832;27;20004;-85
2024/04/15 05:08:38;;;;;;;6.93;3.15;;;15.90;92.90;;;;;;4287508;27;20004;-84
2024/04/15 05:10:42;;;;;;;7.28;3.22;;;15.80;93.10;;;;;;4287493;27;20012;-86
2024/04/15 05:12:42;;;;;;;5.32;3.10;;;15.90;93.00;;;;;;4287579;27;20019;-86
2024/04/15 05:14:50;;;;;;;5.82;3.10;;;15.90;92.80;;;;;;4286761;27;20008;-86
2024/04/15 05:16:51;;;;;;;9.55;3.33;;;15.90;93.10;;;;;;4261021;27;20005;-85
2024/04/15 05:18:54;;;;;;;6.32;3.13;;;16.00;93.20;;;;;;4266009;27;20005;-86
2024/04/15 05:20:59;;;;;;;6.70;3.35;;;16.00;93.10;;;;;;4287594;27;20001;-84
2024/04/15 05:23:03;;;;;;;6.05;3.42;;;16.00;92.60;;;;;;4287936;27;20009;-85
2024/04/15 05:25:04;;;;;;;6.70;3.63;;;16.10;92.90;;;;;;4288003;27;20398;-85
2024/04/15 05:27:08;;;;;;;7.07;3.58;;;16.10;93.00;;;;;;4287741;27;20056;-85
2024/04/15 05:29:10;;;;;;;6.25;3.50;;;16.10;93.10;;;;;;4287812;27;20000;-85
2024/04/15 05:31:14;;;;;;;7.80;3.47;;;16.10;93.00;;;;;;4287413;27;20027;-79
2024/04/15 05:33:15;;;;;;;5.95;3.75;;;16.10;93.00;;;;;;4286810;27;20004;-78
2024/04/15 05:35:18;;;;;;;7.57;4.05;;;16.10;93.10;;;;;;4287038;27;20014;-78
2024/04/15 05:37:22;;;;;;;6.57;3.78;;;16.10;93.00;;;;;;4286328;27;20024;-78
2024/04/15 05:39:25;;;;;;;9.93;3.55;;;15.90;93.40;;;;;;4286876;27;20015;-78
2024/04/15 05:41:26;;;;;;;6.30;3.50;;;15.80;94.00;;;;;;4286285;27;20009;-78
2024/04/15 05:43:30;;;;;;;6.28;3.33;;;15.70;94.30;;;;;;4286554;27;20012;-79
2024/04/15 05:45:31;;;;;;;5.18;3.65;;;15.70;94.40;;;;;;4289070;27;20343;-79
2024/04/15 05:47:34;;;;;;;6.85;3.70;;;15.60;94.50;;;;;;4301665;27;20015;-79
2024/04/15 05:49:37;;;;;;;8.02;3.55;;;15.50;94.30;;;;;;4314024;27;20003;-78
2024/04/15 05:51:41;;;;;;;5.38;3.20;;;15.50;94.10;;;;;;4314086;27;20521;-79
2024/04/15 05:53:44;;;;;;;7.50;3.50;;;15.50;94.40;;;;;;4314416;27;20715;-81
2024/04/15 05:55:48;;;;;;;8.48;3.40;;;15.50;93.50;;;;;;4292956;27;20468;-82
2024/04/15 05:57:49;;;;;;;8.07;3.50;;;15.50;93.70;;;;;;4286985;27;20040;-81
2024/04/15 05:59:52;;;;;;;17.88;9.68;;;15.50;93.60;;;;;;4307801;27;20370;-81
2024/04/15 06:01:53;;;;;;;6.03;2.92;;;15.40;93.50;;;;;;4313901;27;20008;-80
2024/04/15 06:03:57;;;;;;;6.30;2.35;;;15.30;91.10;;;;;;4313608;27;20117;-81
2024/04/15 06:05:58;;;;;;;5.22;2.60;;;15.30;92.00;;;;;;4314035;27;20003;-79
2024/04/15 06:08:02;;;;;;;6.68;2.33;;;15.30;92.20;;;;;;4314347;27;20104;-83
2024/04/15 06:10:06;;;;;;;5.88;2.30;;;15.20;91.40;;;;;;4314342;27;20769;-84
2024/04/15 06:12:10;;;;;;;5.18;2.15;;;15.20;91.20;;;;;;4311828;27;20003;-82
2024/04/15 06:14:11;;;;;;;6.22;2.28;;;15.10;90.70;;;;;;4306158;27;20008;-81
2024/04/15 06:16:14;;;;;;;11.20;2.60;;;15.10;90.80;;;;;;4301856;27;20000;-79
2024/04/15 06:18:15;;;;;;;5.95;2.20;;;15.10;90.80;;;;;;4286824;27;20019;-80
2024/04/15 06:20:19;;;;;;;5.28;2.00;;;15.10;90.80;;;;;;4297866;27;20505;-81
2024/04/15 06:22:20;;;;;;;8.50;2.03;;;15.10;90.50;;;;;;4311825;27;20346;-82
2024/04/15 06:24:24;;;;;;;5.05;1.80;;;15.10;90.80;;;;;;4313893;27;20015;-81
2024/04/15 06:26:27;;;;;;;7.40;2.30;;;15.00;91.00;;;;;;4313706;27;20012;-82
2024/04/15 06:28:31;;;;;;;5.35;1.90;;;15.00;90.90;;;;;;4310999;27;20338;-84
2024/04/15 06:30:32;;;;;;;6.20;1.80;;;14.90;90.90;;;;;;4314053;27;20012;-82
2024/04/15 06:32:35;;;;;;;3.25;1.58;;;14.90;91.20;;;;;;4314449;27;20004;-84
2024/04/15 06:34:36;;;;;;;5.20;1.90;;;14.80;90.00;;;;;;4314143;27;20008;-83
2024/04/15 06:36:40;;;;;;;4.40;2.00;;;15.00;90.60;;;;;;4314117;27;20456;-83
2024/04/15 06:38:40;;;;;;;5.43;2.00;;;14.90;91.00;;;;;;4313947;27;20008;-81
2024/04/15 06:40:44;;;;;;;5.20;1.92;;;14.80;90.90;;;;;;4313835;27;20031;-83
2024/04/15 06:42:48;;;;;;;6.10;1.90;;;14.90;91.30;;;;;;4313979;27;20011;-82
2024/04/15 06:44:51;;;;;;;11.95;2.20;;;14.90;91.50;;;;;;4313777;27;20007;-82
2024/04/15 06:46:52;;;;;;;5.47;2.58;;;14.80;91.70;;;;;;4313319;27;20000;-81
2024/04/15 06:48:55;;;;;;;4.35;1.80;;;14.80;91.70;;;;;;4313181;27;20343;-82
2024/04/15 06:50:56;;;;;;;3.67;1.70;;;14.80;91.70;;;;;;4313597;27;20008;-81
2024/04/15 06:53:03;;;;;;;5.95;2.00;;;14.80;91.60;;;;;;4313520;27;20393;-81
2024/04/15 06:55:05;;;;;;;5.43;1.83;;;14.70;91.70;;;;;;4313529;27;20000;-83
2024/04/15 06:57:09;;;;;;;5.30;2.00;;;14.80;91.70;;;;;;4313505;27;20003;-80
2024/04/15 06:59:12;;;;;;;6.28;2.15;;;14.80;90.70;;;;;;4313577;27;20008;-82
2024/04/15 07:01:16;;;;;;;5.78;2.22;;;14.80;90.80;;;;;;4313416;27;20035;-82
2024/04/15 07:03:17;;;;;;;5.10;2.00;;;14.80;91.00;;;;;;4313472;27;20000;-83
2024/04/15 07:05:21;;;;;;;5.13;2.03;;;14.90;91.20;;;;;;4313561;27;20441;-82
2024/04/15 07:07:22;;;;;;;6.03;2.20;;;14.90;90.40;;;;;;4313519;27;20324;-83
2024/04/15 07:09:25;;;;;;;6.10;2.30;;;14.80;91.00;;;;;;4313502;27;20015;-82
2024/04/15 07:11:26;;;;;;;4.97;2.00;;;14.90;91.30;;;;;;4313471;27;20369;-81
2024/04/15 07:13:30;;;;;;;5.55;2.00;;;15.00;90.20;;;;;;4313314;27;20015;-82
2024/04/15 07:15:34;;;;;;;6.32;2.03;;;15.00;89.20;;;;;;4313326;27;20489;-82
2024/04/15 07:17:38;;;;;;;5.47;1.80;;;15.00;88.90;;;;;;4313281;27;20008;-82
2024/04/15 07:19:39;;;;;;;5.43;1.80;;;14.90;85.50;;;;;;4312712;27;20338;-83
2024/04/15 07:21:43;;;;;;;5.70;1.80;;;14.90;86.20;;;;;;4313276;27;20015;-83
2024/04/15 07:23:45;;;;;;;7.18;1.70;;;14.90;86.70;;;;;;4313605;27;20446;-82
2024/04/15 07:25:49;;;;;;;4.63;1.83;;;14.90;87.30;;;;;;4313597;27;20011;-84
2024/04/15 07:27:50;;;;;;;6.57;2.17;;;14.90;87.80;;;;;;4312640;27;20008;-84
2024/04/15 07:29:53;;;;;;;4.65;1.83;;;14.80;89.00;;;;;;4313310;27;20355;-83
2024/04/15 07:31:57;;;;;;;6.45;2.38;;;14.60;90.70;;;;;;4313334;27;20000;-82
2024/04/15 07:34:00;;;;;;;4.65;1.88;;;14.50;90.90;;;;;;4313503;27;20004;-85
2024/04/15 07:36:03;;;;;;;5.15;2.22;;;14.50;90.50;;;;;;4313376;27;20011;-84
2024/04/15 07:38:06;;;;;;;4.97;2.00;;;14.50;91.10;;;;;;4312868;27;20449;-84
2024/04/15 07:40:08;;;;;;;4.68;2.17;;;14.60;90.90;;;;;;4296064;27;20018;-81
2024/04/15 07:42:12;;;;;;;4.97;2.20;;;14.70;91.10;;;;;;4313530;27;20019;-85
2024/04/15 07:44:13;;;;;;;5.38;2.30;;;14.70;90.90;;;;;;4313433;27;20011;-84
2024/04/15 07:46:16;;;;;;;4.03;2.00;;;14.80;91.00;;;;;;4313473;27;20014;-85
2024/04/15 07:48:20;;;;;;;4.93;2.08;;;14.70;90.80;;;;;;4313661;27;20008;-82
2024/04/15 07:50:24;;;;;;;5.38;2.08;;;14.70;91.10;;;;;;4312344;27;20022;-85
2024/04/15 07:52:25;;;;;;;7.60;2.17;;;14.80;90.90;;;;;;4311967;27;20334;-85
2024/04/15 07:54:28;;;;;;;5.22;2.20;;;14.90;90.80;;;;;;4328830;27;20007;-85
2024/04/15 07:56:29;;;;;;;7.50;2.20;;;15.00;90.90;;;;;;4339834;27;20329;-78
2024/04/15 07:58:34;;;;;;;6.43;2.10;;;15.00;90.50;;;;;;4339030;27;20043;-82
2024/04/15 08:00:35;;;;;;;6.80;2.40;;;15.10;90.70;;;;;;4319560;27;20400;-85
2024/04/15 08:02:39;;;;;;;5.55;2.20;;;15.20;91.20;;;;;;4299511;27;20012;-81
2024/04/15 08:04:42;;;;;;;5.57;2.22;;;15.20;91.40;;;;;;4311550;27;20004;-80
2024/04/15 08:06:46;;;;;;;7.05;2.28;;;15.20;91.00;;;;;;4310886;27;20016;-83
2024/04/15 08:08:47;;;;;;;7.22;2.20;;;15.30;91.20;;;;;;4310466;27;20011;-81
2024/04/15 08:10:50;;;;;;;5.65;2.40;;;15.30;91.10;;;;;;4309550;27;20051;-79
2024/04/15 08:12:51;;;;;;;5.07;2.40;;;15.30;91.20;;;;;;4303875;27;20422;-82
2024/04/15 08:14:54;;;;;;;6.45;2.30;;;15.40;91.50;;;;;;4306393;27;20142;-81
2024/04/15 08:16:55;;;;;;;9.18;3.08;;;15.40;90.90;;;;;;4324234;27;20011;-81
2024/04/15 08:18:59;;;;;;;5.30;2.45;;;15.40;90.90;;;;;;4311886;27;20023;-84
2024/04/15 08:21:04;;;;;;;6.55;2.35;;;15.50;91.10;;;;;;4282919;27;20004;-82
2024/04/15 08:23:08;;;;;;;4.65;2.20;;;15.50;91.40;;;;;;4292597;27;20385;-84
2024/04/15 08:25:08;;;;;;;5.35;2.25;;;15.50;91.00;;;;;;4311080;27;20349;-81
2024/04/15 08:27:12;;;;;;;5.63;2.08;;;15.50;90.50;;;;;;4290951;27;19999;-78
2024/04/15 08:29:14;;;;;;;5.38;2.30;;;15.50;90.20;;;;;;4335861;27;20014;-78
2024/04/15 08:31:17;;;;;;;5.18;2.00;;;15.50;90.20;;;;;;4310146;27;20019;-77
2024/04/15 08:33:18;;;;;;;6.18;1.88;;;15.60;90.10;;;;;;4309436;27;20007;-77
2024/04/15 08:35:22;;;;;;;5.75;2.28;;;15.70;88.70;;;;;;4309312;27;20025;-78
2024/04/15 08:37:26;;;;;;;5.60;2.40;;;15.70;90.00;;;;;;4309185;27;20018;-78
2024/04/15 08:39:29;;;;;;;4.13;1.90;;;15.70;89.40;;;;;;4310104;27;20027;-78
2024/04/15 08:41:46;;;;;;;5.53;2.00;;;15.70;88.50;;;;;;4311715;27;20027;-78
2024/04/15 08:43:50;;;;;;;7.03;1.98;;;15.60;88.60;;;;;;4312638;27;20505;-79
2024/04/15 08:45:54;;;;;;;5.00;1.90;;;15.70;89.50;;;;;;4312119;27;20022;-76
2024/04/15 08:47:58;;;;;;;6.40;1.90;;;15.80;89.50;;;;;;4311820;27;20724;-78
2024/04/15 08:49:59;;;;;;;4.93;2.10;;;15.80;88.20;;;;;;4324536;27;20463;-79
2024/04/15 08:52:07;;;;;;;5.05;2.25;;;15.80;87.10;;;;;;4340144;27;20015;-80
2024/04/15 08:54:11;;;;;;;8.10;2.22;;;15.70;87.40;;;;;;4339821;27;20003;-81
2024/04/15 08:56:16;;;;;;;4.95;1.90;;;15.70;86.50;;;;;;4339936;27;20007;-80
2024/04/15 08:58:17;;;;;;;6.97;2.05;;;15.70;87.50;;;;;;4337232;27;20039;-80
2024/04/15 09:00:23;;;;;;;6.47;2.22;;;15.70;86.50;;;;;;4340027;27;20003;-80
2024/04/15 09:02:26;;;;;;;6.82;2.17;;;15.60;85.20;;;;;;4339013;27;20039;-77
2024/04/15 09:04:30;;;;;;;7.28;2.25;;;15.60;85.70;;;;;;4339625;27;20329;-77
2024/04/15 09:06:30;;;;;;;5.63;2.08;;;15.60;86.70;;;;;;4337010;27;20376;-79
2024/04/15 09:08:34;;;;;;;5.22;2.20;;;15.70;87.00;;;;;;4339646;27;20007;-77
2024/04/15 09:10:38;;;;;;;6.07;2.10;;;15.70;85.50;;;;;;4339233;27;20437;-77
2024/04/15 09:12:42;;;;;;;5.50;2.15;;;15.60;86.00;;;;;;4339422;27;20017;-78
2024/04/15 09:14:43;;;;;;;7.00;2.42;;;15.80;86.70;;;;;;4336372;27;20449;-78
2024/04/15 09:16:47;;;;;;;5.32;2.35;;;15.90;87.40;;;;;;4339881;27;20015;-77
2024/04/15 09:18:48;;;;;;;7.32;2.50;;;15.90;86.60;;;;;;4341013;27;20011;-79
2024/04/15 09:20:52;;;;;;;6.97;3.00;;;16.00;84.70;;;;;;4339656;27;20017;-79
2024/04/15 09:22:53;;;;;;;5.55;2.65;;;16.00;85.90;;;;;;4336594;27;20007;-79
2024/04/15 09:24:57;;;;;;;6.15;2.22;;;16.10;85.50;;;;;;4339515;27;20014;-78
2024/04/15 09:27:00;;;;;;;5.63;2.38;;;16.10;85.60;;;;;;4338888;27;20433;-77
2024/04/15 09:29:04;;;;;;;5.97;2.50;;;15.90;86.00;;;;;;4338626;27;20007;-78
2024/04/15 09:31:06;;;;;;;5.47;2.30;;;16.10;86.50;;;;;;4339425;27;20016;-80
2024/04/15 09:33:13;;;;;;;6.18;2.42;;;16.10;85.50;;;;;;4339513;27;20050;-78
2024/04/15 09:35:14;;;;;;;7.25;2.50;;;16.20;85.10;;;;;;4339512;27;20006;-78
2024/04/15 09:37:18;;;;;;;6.45;2.50;;;16.10;85.60;;;;;;4340118;27;20018;-86
2024/04/15 09:39:20;;;;;;;6.22;2.55;;;16.10;83.30;;;;;;4341321;27;20733;-78
2024/04/15 09:41:24;;;;;;;8.18;2.70;;;16.20;83.70;;;;;;4339691;27;20340;-82
2024/04/15 09:43:30;;;;;;;7.13;2.67;;;16.30;83.70;;;;;;4341314;27;20014;-84
2024/04/15 09:45:34;;;;;;;6.13;2.65;;;16.20;85.00;;;;;;4315668;27;20023;-85
2024/04/15 09:47:35;;;;;;;7.22;2.85;;;16.10;84.70;;;;;;4314409;27;20004;-85
2024/04/15 09:49:40;;;;;;;8.40;2.60;;;16.30;83.70;;;;;;4314311;27;20369;-84
2024/04/15 09:51:42;;;;;;;7.22;3.03;;;16.30;83.40;;;;;;4314044;27;20015;-84
2024/04/15 09:53:47;;;;;;;7.82;2.67;;;16.40;82.90;;;;;;4313526;27;20009;-83
2024/04/15 09:55:51;;;;;;;4.87;2.53;;;16.50;82.80;;;;;;4313245;27;20026;-84
2024/04/15 09:58:00;;;;;;;8.07;3.30;;;16.60;82.40;;;;;;4311909;27;20008;-83
2024/04/15 10:00:06;;;;;;;7.40;2.40;;;16.60;82.20;;;;;;4311920;27;20011;-83
2024/04/15 10:02:23;;;;;;;7.05;2.95;;;16.60;81.50;;;;;;4323743;27;20043;-84
2024/04/15 10:04:31;;;;;;;6.97;2.35;;;16.60;81.40;;;;;;4339563;27;20003;-86
2024/04/15 10:06:43;;;;;;;4.88;2.40;;;16.70;82.20;;;;;;4340465;27;20019;-84
2024/04/15 10:08:44;;;;;;;9.23;2.58;;;16.70;80.60;;;;;;4342467;27;20026;-83
2024/04/15 10:10:48;;;;;;;6.13;2.40;;;16.50;80.60;;;;;;4341488;27;20007;-83
2024/04/15 10:12:50;;;;;;;6.30;2.33;;;16.30;81.50;;;;;;4314431;27;20339;-83
2024/04/15 10:14:54;;;;;;;5.07;2.22;;;16.20;81.80;;;;;;4310568;27;20008;-85
2024/04/15 10:16:58;;;;;;;6.07;2.28;;;16.10;82.70;;;;;;4314478;27;20434;-82
2024/04/15 10:19:02;;;;;;;6.82;2.20;;;16.10;83.20;;;;;;4313636;27;20472;-81
2024/04/15 10:21:03;;;;;;;5.88;2.50;;;16.10;83.30;;;;;;4313634;27;20008;-82
2024/04/15 10:23:09;;;;;;;7.20;2.65;;;16.00;83.60;;;;;;4313285;27;20109;-80
2024/04/15 10:25:10;;;;;;;6.85;2.50;;;15.90;82.70;;;;;;4312086;27;20015;-80
2024/04/15 10:27:15;;;;;;;5.00;2.22;;;16.00;82.90;;;;;;4312087;27;20023;-81
2024/04/15 10:29:17;;;;;;;6.18;2.42;;;16.20;83.70;;;;;;4312036;27;20004;-78
2024/04/15 10:31:21;;;;;;;12.02;3.08;;;16.30;82.90;;;;;;4310988;27;20019;-79
2024/04/15 10:33:25;;;;;;;6.13;2.33;;;16.40;85.20;;;;;;4310849;27;20107;-79
2024/04/15 10:35:29;;;;;;;5.63;2.50;;;16.30;95.60;;;;;;4311224;27;20012;-76
2024/04/15 10:37:30;;;;;;;5.65;2.60;;;15.90;99.90;;;;;;4312488;27;20022;-79
2024/04/15 10:39:35;;;;;;;7.38;2.83;;;15.20;99.90;;;;;;4308063;27;20036;-79
2024/04/15 10:41:39;;;;;;;6.57;2.60;;;15.10;99.90;;;;;;4311015;27;20060;-79
2024/04/15 10:43:43;;;;;;;6.93;3.00;;;14.80;99.90;;;;;;4310985;27;20012;-79
2024/04/15 10:45:46;;;;;;;6.95;3.00;;;14.40;99.90;;;;;;4311060;27;20026;-79
2024/04/15 10:47:49;;;;;;;5.68;2.85;;;14.50;99.90;;;;;;4311043;27;20023;-79
2024/04/15 10:49:53;;;;;;;8.43;3.30;;;14.50;99.90;;;;;;4310265;27;20015;-80
2024/04/15 10:51:57;;;;;;;7.60;2.83;;;14.40;99.90;;;;;;4319210;27;20569;-79
2024/04/15 10:53:58;;;;;;;9.68;3.17;;;14.40;99.90;;;;;;4310600;27;20332;-79
2024/04/15 10:56:02;;;;;;;6.55;3.28;;;14.50;99.90;;;;;;4311077;27;20048;-79
2024/04/15 10:58:09;;;;;;;7.63;3.20;;;14.40;99.90;;;;;;4310345;27;20004;-79
2024/04/15 11:00:13;;;;;;;10.45;4.03;;;14.40;99.90;;;;;;4310325;27;20454;-79
2024/04/15 11:02:17;;;;;;;7.28;3.20;;;14.40;99.90;;;;;;4307045;27;20087;-78
2024/04/15 11:04:18;;;;;;;7.60;2.70;;;14.50;99.90;;;;;;4305704;27;20018;-78
2024/04/15 11:06:24;;;;;;;7.78;3.08;;;14.50;99.90;;;;;;4309815;27;20012;-78
2024/04/15 11:08:25;;;;;;;6.88;3.20;;;14.60;99.90;;;;;;4309818;27;20023;-76
2024/04/15 11:10:29;;;;;;;9.90;2.70;;;14.60;99.90;;;;;;4301431;27;20098;-78
2024/04/15 11:12:30;;;;;;;8.85;2.90;;;14.80;99.90;;;;;;4310227;27;20029;-78
2024/04/15 11:14:33;;;;;;;7.72;2.75;;;14.80;99.90;;;;;;4306648;27;20015;-79
2024/04/15 11:16:35;;;;;;;6.93;2.50;;;14.90;99.90;;;;;;4307412;27;20004;-75
2024/04/15 11:18:39;;;;;;;6.53;2.50;;;15.00;99.90;;;;;;4320645;27;20493;-78
2024/04/15 11:20:40;;;;;;;6.55;2.28;;;15.10;99.90;;;;;;4309947;27;20039;-78
2024/04/15 11:22:47;;;;;;;7.63;2.60;;;15.10;99.80;;;;;;4309896;27;20015;-79
2024/04/15 11:24:48;;;;;;;7.72;2.20;;;15.10;99.90;;;;;;4309464;27;20007;-78
2024/04/15 11:26:51;;;;;;;7.03;2.00;;;15.10;99.20;;;;;;4308687;27;20027;-79
2024/04/15 11:28:52;;;;;;;5.05;1.90;;;15.10;98.50;;;;;;4309631;27;20023;-80
2024/04/15 11:30:57;;;;;;;8.88;2.35;;;15.20;93.90;;;;;;4309578;27;20500;-80
2024/04/15 11:32:59;;;;;;;8.45;2.33;;;15.30;94.40;;;;;;4308583;27;20008;-79
2024/04/15 11:35:07;;;;;;;8.85;1.98;;;15.30;95.20;;;;;;4309988;27;20769;-78
2024/04/15 11:37:08;;;;;;;5.53;2.17;;;15.40;93.90;;;;;;4314111;27;20019;-79
2024/04/15 11:39:15;;;;;;;7.40;1.70;;;15.40;93.60;;;;;;4309458;27;20019;-80
2024/04/15 11:41:17;;;;;;;7.75;1.90;;;15.40;92.80;;;;;;4312586;27;20011;-77
2024/04/15 11:43:21;;;;;;;8.32;2.00;;;15.50;92.10;;;;;;4309732;27;20451;-76
2024/04/15 11:45:21;;;;;;;7.32;2.33;;;15.50;94.80;;;;;;4309622;27;20439;-79
2024/04/15 11:47:25;;;;;;;10.30;5.45;;;15.50;90.80;;;;;;4309725;27;20012;-78
2024/04/15 11:49:27;;;;;;;5.63;2.05;;;15.50;90.00;;;;;;4309264;27;20020;-76
2024/04/15 11:51:31;;;;;;;6.30;2.10;;;15.60;90.60;;;;;;4309546;27;20020;-78
2024/04/15 11:53:32;;;;;;;9.32;2.22;;;15.50;89.70;;;;;;4310048;27;20012;-76
2024/04/15 11:55:38;;;;;;;8.20;2.30;;;15.40;90.30;;;;;;4309569;27;20027;-79
2024/04/15 11:57:40;;;;;;;6.22;1.80;;;15.30;89.80;;;;;;4307470;27;20007;-79
2024/04/15 11:59:43;;;;;;;9.02;2.00;;;15.30;90.80;;;;;;4305537;27;20036;-80
2024/04/15 12:01:44;;;;;;;8.40;2.28;;;15.20;91.20;;;;;;4286168;27;20005;-79
2024/04/15 12:03:48;;;;;;;5.05;1.55;;;15.20;91.00;;;;;;4283608;27;20342;-79
2024/04/15 12:05:49;;;;;;;6.75;1.92;;;15.20;90.40;;;;;;4285200;27;20019;-82
2024/04/15 12:07:53;;;;;;;8.25;2.15;;;15.20;90.40;;;;;;4312247;27;20004;-77
2024/04/15 12:09:55;;;;;;;6.10;1.90;;;15.40;90.40;;;;;;4283567;27;20754;-78
2024/04/15 12:12:01;;;;;;;7.03;2.17;;;15.40;90.10;;;;;;4297726;27;20001;-77
2024/04/15 12:14:02;;;;;;;8.25;2.20;;;15.50;90.70;;;;;;4306229;27;20004;-79
2024/04/15 12:16:07;;;;;;;8.60;1.90;;;15.60;90.50;;;;;;4300989;27;20457;-78
2024/04/15 12:18:09;;;;;;;7.20;1.83;;;15.60;89.30;;;;;;4305544;27;20000;-78
2024/04/15 12:20:13;;;;;;;5.78;2.00;;;15.70;89.90;;;;;;4306870;27;20012;-78
2024/04/15 12:22:13;;;;;;;12.60;4.97;;;15.70;90.00;;;;;;4283137;27;20008;-78
2024/04/15 12:24:17;;;;;;;7.22;2.28;;;15.80;89.80;;;;;;4292757;27;20094;-81
2024/04/15 12:26:18;;;;;;;6.20;2.00;;;15.90;90.20;;;;;;4310634;27;20026;-78
2024/04/15 12:28:24;;;;;;;6.45;1.83;;;16.00;89.90;;;;;;4298240;27;20005;-79
2024/04/15 12:30:25;;;;;;;7.38;1.77;;;16.10;89.10;;;;;;4297024;27;20019;-82
2024/04/15 12:32:29;;;;;;;10.52;1.83;;;16.20;86.40;;;;;;4285478;27;20012;-78
2024/04/15 12:34:32;;;;;;;6.60;1.88;;;16.30;85.70;;;;;;4297187;27;20007;-82
2024/04/15 12:36:34;;;;;;;6.97;1.95;;;16.50;86.70;;;;;;4290624;27;20040;-81
2024/04/15 12:38:38;;;;;;;6.88;1.77;;;16.70;84.70;;;;;;4297914;27;20022;-80
2024/04/15 12:40:38;;;;;;;5.72;1.70;;;16.80;84.10;;;;;;4307272;27;20016;-78
2024/04/15 12:42:42;;;;;;;8.13;1.83;;;16.90;83.00;;;;;;4291947;27;20019;-80
2024/04/15 12:44:46;;;;;;;7.40;2.03;;;17.10;83.20;;;;;;4283146;27;20164;-81
2024/04/15 12:46:49;;;;;;;8.35;1.92;;;17.30;83.60;;;;;;4282898;27;20473;-80
2024/04/15 12:48:50;;;;;;;4.82;1.63;;;17.50;82.60;;;;;;4283096;27;20447;-80
2024/04/15 12:50:57;;;;;;;6.18;1.80;;;17.70;81.00;;;;;;4285432;27;20020;-80
2024/04/15 12:52:58;;;;;;;6.53;2.03;;;17.60;79.40;;;;;;4290303;27;20056;-81
2024/04/15 12:55:02;;;;;;;5.88;1.65;;;17.60;79.90;;;;;;4283975;27;20008;-79
2024/04/15 12:57:03;;;;;;;10.98;4.22;;;17.40;80.30;;;;;;4286133;27;20017;-81
2024/04/15 12:59:07;;;;;;;7.30;1.98;;;17.30;80.50;;;;;;4296810;27;20023;-80
2024/04/15 13:01:10;;;;;;;5.10;1.70;;;17.10;80.60;;;;;;4284825;27;20330;-81
2024/04/15 13:03:14;;;;;;;5.88;1.73;;;17.00;81.70;;;;;;4283834;27;20005;-83
2024/04/15 13:05:15;;;;;;;5.97;1.70;;;16.90;82.80;;;;;;4285362;27;20023;-83
2024/04/15 13:07:19;;;;;;;6.20;2.00;;;16.80;86.30;;;;;;4282524;27;20004;-81
2024/04/15 13:09:20;;;;;;;6.38;1.88;;;16.70;87.40;;;;;;4284160;27;20008;-81
2024/04/15 13:11:24;;;;;;;8.80;2.42;;;16.40;90.40;;;;;;4282592;27;20004;-83
2024/04/15 13:13:25;;;;;;;9.85;2.10;;;16.30;92.00;;;;;;4284041;27;20445;-82
2024/04/15 13:15:26;;;;;;;5.75;2.20;;;16.20;92.30;;;;;;4280097;27;20005;-82
2024/04/15 13:17:32;;;;;;;6.03;2.30;;;16.20;92.60;;;;;;4289238;27;20012;-82
2024/04/15 13:19:34;;;;;;;9.07;2.80;;;16.10;93.20;;;;;;4283054;27;20019;-82
2024/04/15 13:21:37;;;;;;;7.32;2.67;;;16.10;94.80;;;;;;4294866;27;20431;-81
2024/04/15 13:23:42;;;;;;;8.73;2.70;;;16.00;95.60;;;;;;4297547;27;20458;-83
2024/04/15 13:25:45;;;;;;;9.70;3.08;;;15.80;96.70;;;;;;4283589;27;20577;-83
2024/04/15 13:27:46;;;;;;;9.82;3.08;;;15.60;97.90;;;;;;4285474;27;20466;-81
2024/04/15 13:29:50;;;;;;;9.20;3.40;;;15.60;99.00;;;;;;4299206;27;20033;-83
2024/04/15 13:31:51;;;;;;;5.47;2.80;;;15.50;99.30;;;;;;4306199;27;20452;-82
2024/04/15 13:33:57;;;;;;;9.93;3.03;;;15.60;99.40;;;;;;4290219;27;20071;-80
2024/04/15 13:35:58;;;;;;;6.60;3.47;;;15.70;99.30;;;;;;4285140;27;20756;-80
2024/04/15 13:38:05;;;;;;;9.52;3.35;;;16.00;99.50;;;;;;4284614;27;20040;-79
2024/04/15 13:40:07;;;;;;;9.60;3.30;;;16.30;99.30;;;;;;4285120;27;20430;-81
2024/04/15 13:42:11;;;;;;;8.15;2.92;;;16.70;99.50;;;;;;4297561;27;20080;-80
2024/04/15 13:44:12;;;;;;;9.90;2.78;;;17.20;99.10;;;;;;4285503;27;20346;-81
2024/04/15 13:46:15;;;;;;;7.03;2.30;;;17.70;98.00;;;;;;4284894;27;20012;-81
2024/04/15 13:48:16;;;;;;;7.00;2.60;;;18.00;94.40;;;;;;4284842;27;20008;-82
2024/04/15 13:50:23;;;;;;;10.57;2.85;;;18.30;93.90;;;;;;4284357;27;20368;-80
2024/04/15 13:52:24;;;;;;;8.57;2.78;;;18.30;94.20;;;;;;4297118;27;20008;-79
2024/04/15 13:54:28;;;;;;;7.57;2.70;;;18.40;93.20;;;;;;4294445;27;20014;-80
2024/04/15 13:56:29;;;;;;;6.85;2.22;;;18.10;92.80;;;;;;4285471;27;20015;-80
2024/04/15 13:58:32;;;;;;;7.93;2.70;;;18.10;92.90;;;;;;4284818;27;20013;-80
2024/04/15 14:00:33;;;;;;;9.43;3.08;;;18.10;93.40;;;;;;4284896;27;20015;-80
2024/04/15 14:02:38;;;;;;;8.48;2.65;;;18.10;93.40;;;;;;4284683;27;20044;-80
2024/04/15 14:04:39;;;;;;;6.80;2.20;;;18.20;92.80;;;;;;4295630;27;20004;-80
2024/04/15 14:06:45;;;;;;;9.90;2.63;;;18.20;92.60;;;;;;4304795;27;20484;-81
2024/04/15 14:08:47;;;;;;;8.93;2.63;;;18.20;92.80;;;;;;4307815;27;20009;-79
2024/04/15 14:10:52;;;;;;;9.35;2.50;;;18.10;92.20;;;;;;4302328;27;20008;-79
2024/04/15 14:12:53;;;;;;;9.07;2.88;;;18.20;92.40;;;;;;4304878;27;20016;-79
2024/04/15 14:14:57;;;;;;;8.15;2.88;;;18.20;93.10;;;;;;4300708;27;20076;-81
2024/04/15 14:16:59;;;;;;;7.85;2.78;;;18.00;92.90;;;;;;4300607;27;20000;-79
2024/04/15 14:19:02;;;;;;;7.68;3.00;;;17.80;92.50;;;;;;4311242;27;20003;-79
2024/04/15 14:21:04;;;;;;;9.35;2.72;;;17.70;93.70;;;;;;4301362;27;20016;-86
2024/04/15 14:23:10;;;;;;;7.10;2.75;;;17.70;93.90;;;;;;4303800;27;20356;-83
2024/04/15 14:25:11;;;;;;;8.43;2.92;;;17.60;93.20;;;;;;4290778;27;20004;-83
2024/04/15 14:27:15;;;;;;;8.25;2.80;;;17.60;94.00;;;;;;4306662;27;20015;-82
2024/04/15 14:29:16;;;;;;;6.55;3.03;;;17.50;94.00;;;;;;4288364;27;20047;-83
2024/04/15 14:31:19;;;;;;;6.57;2.90;;;17.40;93.60;;;;;;4298126;27;20003;-81
2024/04/15 14:33:20;;;;;;;8.10;2.70;;;17.30;94.10;;;;;;4329389;27;20031;-86
2024/04/15 14:35:24;;;;;;;7.70;3.08;;;17.20;92.00;;;;;;4292036;27;20012;-84
2024/04/15 14:37:25;;;;;;;10.25;2.90;;;17.30;92.60;;;;;;4301328;27;20027;-81
2024/04/15 14:39:31;;;;;;;6.10;2.78;;;17.80;92.70;;;;;;4296167;27;20018;-81
2024/04/15 14:41:32;;;;;;;8.73;2.72;;;18.60;92.60;;;;;;4312388;27;20004;-80
2024/04/15 14:43:36;;;;;;;9.27;2.63;;;19.40;91.40;;;;;;4308668;27;20320;-80
2024/04/15 14:45:37;;;;;;;11.25;2.65;;;19.90;87.80;;;;;;4299915;27;20056;-81
2024/04/15 14:47:41;;;;;;;7.10;2.30;;;20.90;77.30;;;;;;4294389;27;20016;-78
2024/04/15 14:49:42;;;;;;;6.35;1.90;;;21.70;74.90;;;;;;4287264;27;20015;-83
2024/04/15 14:51:49;;;;;;;7.82;2.15;;;22.70;67.80;;;;;;4294743;27;20334;-80
2024/04/15 14:53:50;;;;;;;6.43;2.03;;;23.90;60.90;;;;;;4284811;27;22299;-80
2024/04/15 14:55:56;;;;;;;25.77;12.50;;;25.60;58.20;;;;;;4294452;27;20019;-82
2024/04/15 14:57:57;;;;;;;5.22;2.03;;;25.10;51.30;;;;;;4292935;27;20014;-81
2024/04/15 15:00:01;;;;;;;5.05;1.77;;;25.20;54.50;;;;;;4288208;27;20495;-80
2024/04/15 15:02:02;;;;;;;7.53;1.95;;;24.90;52.40;;;;;;4306675;27;20722;-80
2024/04/15 15:04:05;;;;;;;5.88;1.80;;;23.70;54.90;;;;;;4289802;27;20019;-80
2024/04/15 15:06:08;;;;;;;5.82;2.00;;;22.10;56.90;;;;;;4298931;27;20007;-82
2024/04/15 15:08:12;;;;;;;8.40;2.17;;;21.30;60.10;;;;;;4283901;27;20008;-81
2024/04/15 15:10:13;;;;;;;8.88;1.90;;;20.50;61.70;;;;;;4284991;27;20442;-80
2024/04/15 15:12:20;;;;;;;8.02;2.10;;;19.90;63.60;;;;;;4295009;27;20036;-81
2024/04/15 15:14:21;;;;;;;6.38;2.10;;;19.50;63.60;;;;;;4288736;27;21018;-79
2024/04/15 15:16:24;;;;;;;5.50;1.90;;;19.30;66.50;;;;;;4297593;27;20008;-79
2024/04/15 15:18:25;;;;;;;8.55;1.75;;;19.20;66.90;;;;;;4295468;27;20318;-78
2024/04/15 15:20:29;;;;;;;7.30;1.85;;;19.00;66.70;;;;;;4292044;27;20004;-83
2024/04/15 15:22:30;;;;;;;7.53;1.50;;;18.60;67.80;;;;;;4310763;27;20462;-85
2024/04/15 15:24:34;;;;;;;5.47;1.48;;;18.20;64.30;;;;;;4270202;27;20085;-80
2024/04/15 15:26:36;;;;;;;9.63;1.63;;;18.10;64.80;;;;;;4285725;27;20437;-81